sensor_id;sensor_type;location;lat;lon;timestamp;P1;durP1;ratioP1;P2;durP2;ratioP2
54517;SDS011;40423;53.176;6.002;2023-05-10T00:00:26;8.35;;;7.55;;
54517;SDS011;40423;53.176;6.002;2023-05-10T00:02:52;8.73;;;7.57;;
54517;SDS011;40423;53.176;6.002;2023-05-10T00:05:18;9.55;;;8.55;;
54517;SDS011;40423;53.176;6.002;2023-05-10T00:07:44;9.15;;;7.82;;
54517;SDS011;40423;53.176;6.002;2023-05-10T00:10:10;9.70;;;8.70;;
54517;SDS011;40423;53.176;6.002;2023-05-10T00:12:36;9.82;;;8.82;;
54517;SDS011;40423;53.176;6.002;2023-05-10T00:15:03;10.63;;;8.95;;
54517;SDS011;40423;53.176;6.002;2023-05-10T00:17:29;9.90;;;8.88;;
54517;SDS011;40423;53.176;6.002;2023-05-10T00:19:55;10.30;;;8.55;;
54517;SDS011;40423;53.176;6.002;2023-05-10T00:22:20;11.77;;;10.55;;
54517;SDS011;40423;53.176;6.002;2023-05-10T00:24:49;10.60;;;9.45;;
54517;SDS011;40423;53.176;6.002;2023-05-10T00:27:18;11.65;;;10.45;;
54517;SDS011;40423;53.176;6.002;2023-05-10T00:29:47;10.85;;;9.73;;
54517;SDS011;40423;53.176;6.002;2023-05-10T00:32:13;9.70;;;8.10;;
54517;SDS011;40423;53.176;6.002;2023-05-10T00:34:39;9.68;;;8.65;;
54517;SDS011;40423;53.176;6.002;2023-05-10T00:37:07;7.75;;;6.47;;
54517;SDS011;40423;53.176;6.002;2023-05-10T00:39:33;6.10;;;5.50;;
54517;SDS011;40423;53.176;6.002;2023-05-10T00:41:59;6.15;;;5.55;;
54517;SDS011;40423;53.176;6.002;2023-05-10T00:44:25;5.80;;;5.30;;
54517;SDS011;40423;53.176;6.002;2023-05-10T00:46:51;5.63;;;5.13;;
54517;SDS011;40423;53.176;6.002;2023-05-10T00:49:17;5.82;;;5.22;;
54517;SDS011;40423;53.176;6.002;2023-05-10T00:51:44;5.32;;;4.82;;
54517;SDS011;40423;53.176;6.002;2023-05-10T00:54:11;5.60;;;5.10;;
54517;SDS011;40423;53.176;6.002;2023-05-10T00:56:38;5.50;;;5.00;;
54517;SDS011;40423;53.176;6.002;2023-05-10T00:59:05;5.93;;;5.43;;
54517;SDS011;40423;53.176;6.002;2023-05-10T01:01:32;6.68;;;6.07;;
54517;SDS011;40423;53.176;6.002;2023-05-10T01:03:59;5.97;;;5.45;;
54517;SDS011;40423;53.176;6.002;2023-05-10T01:06:25;6.47;;;5.88;;
54517;SDS011;40423;53.176;6.002;2023-05-10T01:08:50;7.03;;;6.32;;
54517;SDS011;40423;53.176;6.002;2023-05-10T01:11:16;7.75;;;6.95;;
54517;SDS011;40423;53.176;6.002;2023-05-10T01:13:43;8.68;;;7.82;;
54517;SDS011;40423;53.176;6.002;2023-05-10T01:16:12;10.50;;;9.40;;
54517;SDS011;40423;53.176;6.002;2023-05-10T01:18:39;9.95;;;8.95;;
54517;SDS011;40423;53.176;6.002;2023-05-10T01:24:12;12.30;;;10.55;;
54517;SDS011;40423;53.176;6.002;2023-05-10T01:34:39;18.63;;;14.90;;
54517;SDS011;40423;53.176;6.002;2023-05-10T01:37:19;22.33;;;17.90;;
54517;SDS011;40423;53.176;6.002;2023-05-10T01:39:54;21.63;;;17.63;;
54517;SDS011;40423;53.176;6.002;2023-05-10T01:42:29;23.17;;;16.63;;
54517;SDS011;40423;53.176;6.002;2023-05-10T01:47:43;20.45;;;16.42;;
54517;SDS011;40423;53.176;6.002;2023-05-10T01:50:15;24.45;;;16.55;;
54517;SDS011;40423;53.176;6.002;2023-05-10T01:52:45;21.33;;;16.35;;
54517;SDS011;40423;53.176;6.002;2023-05-10T01:55:15;26.23;;;17.75;;
54517;SDS011;40423;53.176;6.002;2023-05-10T01:57:43;26.40;;;18.60;;
54517;SDS011;40423;53.176;6.002;2023-05-10T02:00:11;26.65;;;19.52;;
54517;SDS011;40423;53.176;6.002;2023-05-10T02:02:42;29.52;;;20.08;;
54517;SDS011;40423;53.176;6.002;2023-05-10T02:05:11;30.70;;;19.90;;
54517;SDS011;40423;53.176;6.002;2023-05-10T02:07:39;27.60;;;20.30;;
54517;SDS011;40423;53.176;6.002;2023-05-10T02:10:07;31.40;;;21.42;;
54517;SDS011;40423;53.176;6.002;2023-05-10T02:12:35;29.73;;;20.13;;
54517;SDS011;40423;53.176;6.002;2023-05-10T02:15:04;34.10;;;22.40;;
54517;SDS011;40423;53.176;6.002;2023-05-10T02:17:32;37.40;;;22.55;;
54517;SDS011;40423;53.176;6.002;2023-05-10T02:19:59;33.65;;;22.33;;
54517;SDS011;40423;53.176;6.002;2023-05-10T02:22:27;32.88;;;23.25;;
54517;SDS011;40423;53.176;6.002;2023-05-10T02:24:57;34.08;;;23.15;;
54517;SDS011;40423;53.176;6.002;2023-05-10T02:27:25;30.00;;;20.58;;
54517;SDS011;40423;53.176;6.002;2023-05-10T02:29:52;31.50;;;21.33;;
54517;SDS011;40423;53.176;6.002;2023-05-10T02:32:19;31.90;;;22.60;;
54517;SDS011;40423;53.176;6.002;2023-05-10T02:34:47;25.50;;;20.42;;
54517;SDS011;40423;53.176;6.002;2023-05-10T02:37:17;26.92;;;20.55;;
54517;SDS011;40423;53.176;6.002;2023-05-10T02:39:52;27.95;;;21.58;;
54517;SDS011;40423;53.176;6.002;2023-05-10T02:42:25;30.75;;;23.35;;
54517;SDS011;40423;53.176;6.002;2023-05-10T02:44:55;37.27;;;25.10;;
54517;SDS011;40423;53.176;6.002;2023-05-10T02:47:28;30.52;;;22.27;;
54517;SDS011;40423;53.176;6.002;2023-05-10T02:49:54;35.35;;;22.98;;
54517;SDS011;40423;53.176;6.002;2023-05-10T02:52:25;36.72;;;22.42;;
54517;SDS011;40423;53.176;6.002;2023-05-10T02:57:25;33.47;;;19.50;;
54517;SDS011;40423;53.176;6.002;2023-05-10T02:59:54;28.08;;;17.92;;
54517;SDS011;40423;53.176;6.002;2023-05-10T03:02:23;22.35;;;15.90;;
54517;SDS011;40423;53.176;6.002;2023-05-10T03:04:49;17.55;;;11.80;;
54517;SDS011;40423;53.176;6.002;2023-05-10T03:07:15;12.45;;;10.45;;
54517;SDS011;40423;53.176;6.002;2023-05-10T03:09:41;10.13;;;7.70;;
54517;SDS011;40423;53.176;6.002;2023-05-10T03:12:11;7.93;;;6.85;;
54517;SDS011;40423;53.176;6.002;2023-05-10T03:18:09;4.55;;;4.07;;
54517;SDS011;40423;53.176;6.002;2023-05-10T03:20:59;4.82;;;4.13;;
54517;SDS011;40423;53.176;6.002;2023-05-10T03:23:34;3.65;;;2.85;;
54517;SDS011;40423;53.176;6.002;2023-05-10T03:26:01;4.03;;;3.20;;
54517;SDS011;40423;53.176;6.002;2023-05-10T03:28:29;3.22;;;2.83;;
54517;SDS011;40423;53.176;6.002;2023-05-10T03:30:56;4.32;;;2.80;;
54517;SDS011;40423;53.176;6.002;2023-05-10T03:33:23;3.72;;;2.60;;
54517;SDS011;40423;53.176;6.002;2023-05-10T03:35:49;2.92;;;2.63;;
54517;SDS011;40423;53.176;6.002;2023-05-10T03:38:15;2.85;;;2.55;;
54517;SDS011;40423;53.176;6.002;2023-05-10T03:40:41;6.57;;;2.97;;
54517;SDS011;40423;53.176;6.002;2023-05-10T03:43:07;3.85;;;2.78;;
54517;SDS011;40423;53.176;6.002;2023-05-10T03:45:32;5.10;;;3.90;;
54517;SDS011;40423;53.176;6.002;2023-05-10T03:47:58;3.95;;;3.50;;
54517;SDS011;40423;53.176;6.002;2023-05-10T03:50:24;3.78;;;3.30;;
54517;SDS011;40423;53.176;6.002;2023-05-10T03:52:50;6.22;;;3.67;;
54517;SDS011;40423;53.176;6.002;2023-05-10T03:55:15;5.20;;;3.97;;
54517;SDS011;40423;53.176;6.002;2023-05-10T03:57:41;5.28;;;4.35;;
54517;SDS011;40423;53.176;6.002;2023-05-10T04:00:07;6.05;;;5.45;;
54517;SDS011;40423;53.176;6.002;2023-05-10T04:02:34;7.68;;;5.82;;
54517;SDS011;40423;53.176;6.002;2023-05-10T04:05:00;7.03;;;6.32;;
54517;SDS011;40423;53.176;6.002;2023-05-10T04:07:26;8.20;;;6.75;;
54517;SDS011;40423;53.176;6.002;2023-05-10T04:09:52;10.25;;;7.63;;
54517;SDS011;40423;53.176;6.002;2023-05-10T04:12:18;9.27;;;7.60;;
54517;SDS011;40423;53.176;6.002;2023-05-10T04:14:43;9.00;;;7.95;;
54517;SDS011;40423;53.176;6.002;2023-05-10T04:17:09;8.85;;;7.95;;
54517;SDS011;40423;53.176;6.002;2023-05-10T04:19:35;10.65;;;8.75;;
54517;SDS011;40423;53.176;6.002;2023-05-10T04:22:01;10.18;;;8.60;;
54517;SDS011;40423;53.176;6.002;2023-05-10T04:24:27;10.40;;;8.85;;
54517;SDS011;40423;53.176;6.002;2023-05-10T04:26:53;11.90;;;9.00;;
54517;SDS011;40423;53.176;6.002;2023-05-10T04:29:20;11.88;;;8.43;;
54517;SDS011;40423;53.176;6.002;2023-05-10T04:31:46;9.40;;;8.50;;
54517;SDS011;40423;53.176;6.002;2023-05-10T04:34:11;11.88;;;9.02;;
54517;SDS011;40423;53.176;6.002;2023-05-10T04:36:37;9.93;;;8.88;;
54517;SDS011;40423;53.176;6.002;2023-05-10T04:39:03;9.88;;;8.65;;
54517;SDS011;40423;53.176;6.002;2023-05-10T04:41:32;9.32;;;8.18;;
54517;SDS011;40423;53.176;6.002;2023-05-10T04:43:57;8.48;;;7.05;;
54517;SDS011;40423;53.176;6.002;2023-05-10T04:46:23;7.38;;;6.30;;
54517;SDS011;40423;53.176;6.002;2023-05-10T04:48:49;7.13;;;5.72;;
54517;SDS011;40423;53.176;6.002;2023-05-10T04:51:15;3.95;;;3.55;;
54517;SDS011;40423;53.176;6.002;2023-05-10T04:53:40;3.20;;;2.67;;
54517;SDS011;40423;53.176;6.002;2023-05-10T04:56:06;2.58;;;2.28;;
54517;SDS011;40423;53.176;6.002;2023-05-10T04:58:32;3.15;;;2.35;;
54517;SDS011;40423;53.176;6.002;2023-05-10T05:01:04;2.58;;;2.17;;
54517;SDS011;40423;53.176;6.002;2023-05-10T05:03:31;2.75;;;2.35;;
54517;SDS011;40423;53.176;6.002;2023-05-10T05:05:57;2.70;;;2.20;;
54517;SDS011;40423;53.176;6.002;2023-05-10T05:08:23;3.50;;;2.80;;
54517;SDS011;40423;53.176;6.002;2023-05-10T05:10:49;2.60;;;2.20;;
54517;SDS011;40423;53.176;6.002;2023-05-10T05:13:17;3.13;;;2.58;;
54517;SDS011;40423;53.176;6.002;2023-05-10T05:15:43;3.65;;;3.10;;
54517;SDS011;40423;53.176;6.002;2023-05-10T05:18:09;3.97;;;3.25;;
54517;SDS011;40423;53.176;6.002;2023-05-10T05:20:35;4.53;;;3.45;;
54517;SDS011;40423;53.176;6.002;2023-05-10T05:23:01;5.38;;;4.00;;
54517;SDS011;40423;53.176;6.002;2023-05-10T05:25:27;5.13;;;4.57;;
54517;SDS011;40423;53.176;6.002;2023-05-10T05:27:52;4.93;;;4.43;;
54517;SDS011;40423;53.176;6.002;2023-05-10T05:30:18;6.00;;;5.40;;
54517;SDS011;40423;53.176;6.002;2023-05-10T05:32:47;6.20;;;5.60;;
54517;SDS011;40423;53.176;6.002;2023-05-10T05:35:22;6.60;;;5.78;;
54517;SDS011;40423;53.176;6.002;2023-05-10T05:37:47;8.90;;;6.90;;
54517;SDS011;40423;53.176;6.002;2023-05-10T05:40:25;8.57;;;7.57;;
54517;SDS011;40423;53.176;6.002;2023-05-10T05:42:57;10.02;;;8.02;;
54517;SDS011;40423;53.176;6.002;2023-05-10T05:45:31;9.02;;;7.72;;
54517;SDS011;40423;53.176;6.002;2023-05-10T05:47:57;11.55;;;7.70;;
54517;SDS011;40423;53.176;6.002;2023-05-10T05:50:23;9.88;;;7.70;;
54517;SDS011;40423;53.176;6.002;2023-05-10T05:52:51;8.93;;;7.70;;
54517;SDS011;40423;53.176;6.002;2023-05-10T05:55:17;10.68;;;8.13;;
54517;SDS011;40423;53.176;6.002;2023-05-10T05:57:43;8.75;;;7.57;;
54517;SDS011;40423;53.176;6.002;2023-05-10T06:00:09;11.02;;;8.05;;
54517;SDS011;40423;53.176;6.002;2023-05-10T06:02:35;10.00;;;7.85;;
54517;SDS011;40423;53.176;6.002;2023-05-10T06:05:01;10.70;;;8.77;;
54517;SDS011;40423;53.176;6.002;2023-05-10T06:07:27;9.18;;;7.78;;
54517;SDS011;40423;53.176;6.002;2023-05-10T06:09:53;10.75;;;7.32;;
54517;SDS011;40423;53.176;6.002;2023-05-10T06:12:19;8.15;;;6.60;;
54517;SDS011;40423;53.176;6.002;2023-05-10T06:14:45;8.20;;;6.20;;
54517;SDS011;40423;53.176;6.002;2023-05-10T06:17:10;9.05;;;6.47;;
54517;SDS011;40423;53.176;6.002;2023-05-10T06:19:36;8.50;;;5.60;;
54517;SDS011;40423;53.176;6.002;2023-05-10T06:22:02;8.93;;;5.55;;
54517;SDS011;40423;53.176;6.002;2023-05-10T06:24:28;10.13;;;6.03;;
54517;SDS011;40423;53.176;6.002;2023-05-10T06:26:53;6.80;;;4.60;;
54517;SDS011;40423;53.176;6.002;2023-05-10T06:29:19;7.65;;;4.93;;
54517;SDS011;40423;53.176;6.002;2023-05-10T06:31:45;6.55;;;4.45;;
54517;SDS011;40423;53.176;6.002;2023-05-10T06:34:11;6.95;;;4.57;;
54517;SDS011;40423;53.176;6.002;2023-05-10T06:36:46;5.95;;;4.43;;
54517;SDS011;40423;53.176;6.002;2023-05-10T06:39:12;4.78;;;3.38;;
54517;SDS011;40423;53.176;6.002;2023-05-10T06:41:37;5.53;;;3.97;;
54517;SDS011;40423;53.176;6.002;2023-05-10T06:44:03;4.97;;;3.33;;
54517;SDS011;40423;53.176;6.002;2023-05-10T06:46:30;4.32;;;3.33;;
54517;SDS011;40423;53.176;6.002;2023-05-10T06:48:56;4.10;;;2.78;;
54517;SDS011;40423;53.176;6.002;2023-05-10T06:51:25;4.60;;;3.33;;
54517;SDS011;40423;53.176;6.002;2023-05-10T06:53:51;5.10;;;3.08;;
54517;SDS011;40423;53.176;6.002;2023-05-10T06:56:16;6.38;;;3.20;;
54517;SDS011;40423;53.176;6.002;2023-05-10T06:58:46;3.78;;;2.65;;
54517;SDS011;40423;53.176;6.002;2023-05-10T07:01:15;5.00;;;3.08;;
54517;SDS011;40423;53.176;6.002;2023-05-10T07:03:41;3.45;;;2.78;;
54517;SDS011;40423;53.176;6.002;2023-05-10T07:06:06;4.43;;;2.90;;
54517;SDS011;40423;53.176;6.002;2023-05-10T07:08:35;5.72;;;3.30;;
54517;SDS011;40423;53.176;6.002;2023-05-10T07:11:05;3.80;;;2.72;;
54517;SDS011;40423;53.176;6.002;2023-05-10T07:13:37;4.72;;;3.30;;
54517;SDS011;40423;53.176;6.002;2023-05-10T07:16:04;4.50;;;3.30;;
54517;SDS011;40423;53.176;6.002;2023-05-10T07:18:31;5.38;;;3.58;;
54517;SDS011;40423;53.176;6.002;2023-05-10T07:20:57;5.47;;;3.40;;
54517;SDS011;40423;53.176;6.002;2023-05-10T07:23:23;4.13;;;3.38;;
54517;SDS011;40423;53.176;6.002;2023-05-10T07:25:48;4.10;;;3.08;;
54517;SDS011;40423;53.176;6.002;2023-05-10T07:28:16;5.97;;;3.28;;
54517;SDS011;40423;53.176;6.002;2023-05-10T07:30:42;3.92;;;3.10;;
54517;SDS011;40423;53.176;6.002;2023-05-10T07:33:09;4.10;;;3.25;;
54517;SDS011;40423;53.176;6.002;2023-05-10T07:35:35;4.88;;;3.53;;
54517;SDS011;40423;53.176;6.002;2023-05-10T07:38:01;6.50;;;4.00;;
54517;SDS011;40423;53.176;6.002;2023-05-10T07:40:28;4.90;;;3.92;;
54517;SDS011;40423;53.176;6.002;2023-05-10T07:42:54;5.30;;;4.20;;
54517;SDS011;40423;53.176;6.002;2023-05-10T07:45:20;4.03;;;3.42;;
54517;SDS011;40423;53.176;6.002;2023-05-10T07:47:46;5.63;;;3.38;;
54517;SDS011;40423;53.176;6.002;2023-05-10T07:50:12;4.85;;;3.05;;
54517;SDS011;40423;53.176;6.002;2023-05-10T07:52:37;4.00;;;2.72;;
54517;SDS011;40423;53.176;6.002;2023-05-10T07:55:04;4.60;;;3.10;;
54517;SDS011;40423;53.176;6.002;2023-05-10T07:57:32;5.78;;;2.92;;
54517;SDS011;40423;53.176;6.002;2023-05-10T08:00:01;6.32;;;3.35;;
54517;SDS011;40423;53.176;6.002;2023-05-10T08:02:27;7.03;;;3.33;;
54517;SDS011;40423;53.176;6.002;2023-05-10T08:04:53;10.50;;;3.88;;
54517;SDS011;40423;53.176;6.002;2023-05-10T08:07:19;6.30;;;3.83;;
54517;SDS011;40423;53.176;6.002;2023-05-10T08:09:44;5.70;;;3.78;;
54517;SDS011;40423;53.176;6.002;2023-05-10T08:12:10;7.18;;;4.32;;
54517;SDS011;40423;53.176;6.002;2023-05-10T08:14:36;8.68;;;4.60;;
54517;SDS011;40423;53.176;6.002;2023-05-10T08:17:02;8.35;;;4.97;;
54517;SDS011;40423;53.176;6.002;2023-05-10T08:19:28;7.15;;;4.13;;
54517;SDS011;40423;53.176;6.002;2023-05-10T08:21:54;10.80;;;4.90;;
54517;SDS011;40423;53.176;6.002;2023-05-10T08:24:23;8.48;;;5.00;;
54517;SDS011;40423;53.176;6.002;2023-05-10T08:26:51;10.23;;;5.15;;
54517;SDS011;40423;53.176;6.002;2023-05-10T08:29:17;7.57;;;5.10;;
54517;SDS011;40423;53.176;6.002;2023-05-10T08:31:43;9.45;;;5.30;;
54517;SDS011;40423;53.176;6.002;2023-05-10T08:34:08;9.25;;;5.50;;
54517;SDS011;40423;53.176;6.002;2023-05-10T08:36:34;9.35;;;6.57;;
54517;SDS011;40423;53.176;6.002;2023-05-10T08:39:01;7.80;;;5.38;;
54517;SDS011;40423;53.176;6.002;2023-05-10T08:41:27;9.65;;;6.55;;
54517;SDS011;40423;53.176;6.002;2023-05-10T08:43:53;11.23;;;6.65;;
54517;SDS011;40423;53.176;6.002;2023-05-10T08:46:22;10.05;;;6.50;;
54517;SDS011;40423;53.176;6.002;2023-05-10T08:48:49;9.70;;;5.97;;
54517;SDS011;40423;53.176;6.002;2023-05-10T08:51:17;9.05;;;5.65;;
54517;SDS011;40423;53.176;6.002;2023-05-10T08:53:46;11.35;;;6.38;;
54517;SDS011;40423;53.176;6.002;2023-05-10T08:56:12;11.00;;;6.57;;
54517;SDS011;40423;53.176;6.002;2023-05-10T08:58:38;7.18;;;5.15;;
54517;SDS011;40423;53.176;6.002;2023-05-10T09:01:07;7.25;;;5.15;;
54517;SDS011;40423;53.176;6.002;2023-05-10T09:03:33;7.63;;;4.65;;
54517;SDS011;40423;53.176;6.002;2023-05-10T09:06:00;8.23;;;5.13;;
54517;SDS011;40423;53.176;6.002;2023-05-10T09:08:26;7.57;;;5.47;;
54517;SDS011;40423;53.176;6.002;2023-05-10T09:10:52;7.40;;;5.60;;
54517;SDS011;40423;53.176;6.002;2023-05-10T09:13:20;8.07;;;5.43;;
54517;SDS011;40423;53.176;6.002;2023-05-10T09:15:47;6.60;;;5.30;;
54517;SDS011;40423;53.176;6.002;2023-05-10T09:18:14;9.10;;;5.05;;
54517;SDS011;40423;53.176;6.002;2023-05-10T09:20:40;7.03;;;4.78;;
54517;SDS011;40423;53.176;6.002;2023-05-10T09:23:06;7.65;;;5.45;;
54517;SDS011;40423;53.176;6.002;2023-05-10T09:25:32;6.22;;;4.50;;
54517;SDS011;40423;53.176;6.002;2023-05-10T09:28:05;5.68;;;4.53;;
54517;SDS011;40423;53.176;6.002;2023-05-10T09:30:33;10.18;;;6.70;;
54517;SDS011;40423;53.176;6.002;2023-05-10T09:32:59;11.70;;;7.10;;
54517;SDS011;40423;53.176;6.002;2023-05-10T09:35:26;12.40;;;7.90;;
54517;SDS011;40423;53.176;6.002;2023-05-10T09:37:57;8.98;;;6.70;;
54517;SDS011;40423;53.176;6.002;2023-05-10T09:40:27;11.20;;;7.20;;
54517;SDS011;40423;53.176;6.002;2023-05-10T09:43:06;12.23;;;8.18;;
54517;SDS011;40423;53.176;6.002;2023-05-10T09:45:34;8.93;;;7.25;;
54517;SDS011;40423;53.176;6.002;2023-05-10T09:48:00;11.35;;;7.40;;
54517;SDS011;40423;53.176;6.002;2023-05-10T09:50:29;11.93;;;8.38;;
54517;SDS011;40423;53.176;6.002;2023-05-10T09:52:59;13.07;;;8.50;;
54517;SDS011;40423;53.176;6.002;2023-05-10T09:58:02;12.70;;;9.48;;
54517;SDS011;40423;53.176;6.002;2023-05-10T10:00:34;12.32;;;8.88;;
54517;SDS011;40423;53.176;6.002;2023-05-10T10:03:16;13.38;;;8.98;;
54517;SDS011;40423;53.176;6.002;2023-05-10T10:05:44;14.48;;;9.52;;
54517;SDS011;40423;53.176;6.002;2023-05-10T10:08:11;11.80;;;8.63;;
54517;SDS011;40423;53.176;6.002;2023-05-10T10:10:38;11.07;;;8.30;;
54517;SDS011;40423;53.176;6.002;2023-05-10T10:13:05;10.23;;;7.75;;
54517;SDS011;40423;53.176;6.002;2023-05-10T10:15:32;10.32;;;7.50;;
54517;SDS011;40423;53.176;6.002;2023-05-10T10:17:58;9.23;;;6.88;;
54517;SDS011;40423;53.176;6.002;2023-05-10T10:20:25;11.15;;;7.32;;
54517;SDS011;40423;53.176;6.002;2023-05-10T10:22:51;9.55;;;7.63;;
54517;SDS011;40423;53.176;6.002;2023-05-10T10:25:17;8.85;;;7.13;;
54517;SDS011;40423;53.176;6.002;2023-05-10T10:27:52;8.48;;;6.47;;
54517;SDS011;40423;53.176;6.002;2023-05-10T10:30:43;10.15;;;7.20;;
54517;SDS011;40423;53.176;6.002;2023-05-10T10:36:08;10.98;;;6.53;;
54517;SDS011;40423;53.176;6.002;2023-05-10T10:41:31;9.60;;;6.90;;
54517;SDS011;40423;53.176;6.002;2023-05-10T10:49:37;12.93;;;7.70;;
54517;SDS011;40423;53.176;6.002;2023-05-10T10:52:21;10.52;;;7.65;;
54517;SDS011;40423;53.176;6.002;2023-05-10T10:54:57;9.15;;;6.50;;
54517;SDS011;40423;53.176;6.002;2023-05-10T10:57:25;9.23;;;7.15;;
54517;SDS011;40423;53.176;6.002;2023-05-10T10:59:53;9.88;;;7.25;;
54517;SDS011;40423;53.176;6.002;2023-05-10T11:07:58;9.48;;;7.70;;
54517;SDS011;40423;53.176;6.002;2023-05-10T11:10:25;9.32;;;7.13;;
54517;SDS011;40423;53.176;6.002;2023-05-10T11:13:01;10.32;;;7.88;;
54517;SDS011;40423;53.176;6.002;2023-05-10T11:15:32;9.40;;;6.72;;
54517;SDS011;40423;53.176;6.002;2023-05-10T11:17:59;9.90;;;7.40;;
54517;SDS011;40423;53.176;6.002;2023-05-10T11:20:41;9.13;;;7.13;;
54517;SDS011;40423;53.176;6.002;2023-05-10T11:23:11;9.00;;;6.80;;
54517;SDS011;40423;53.176;6.002;2023-05-10T11:25:43;9.05;;;6.68;;
54517;SDS011;40423;53.176;6.002;2023-05-10T11:28:10;10.98;;;7.13;;
54517;SDS011;40423;53.176;6.002;2023-05-10T11:30:41;8.13;;;6.45;;
54517;SDS011;40423;53.176;6.002;2023-05-10T11:33:08;13.07;;;7.00;;
54517;SDS011;40423;53.176;6.002;2023-05-10T11:35:38;8.95;;;6.80;;
54517;SDS011;40423;53.176;6.002;2023-05-10T11:38:08;9.35;;;7.07;;
54517;SDS011;40423;53.176;6.002;2023-05-10T11:40:35;8.80;;;6.90;;
54517;SDS011;40423;53.176;6.002;2023-05-10T11:43:02;7.40;;;5.72;;
54517;SDS011;40423;53.176;6.002;2023-05-10T11:45:28;8.50;;;7.00;;
54517;SDS011;40423;53.176;6.002;2023-05-10T11:47:57;8.75;;;6.72;;
54517;SDS011;40423;53.176;6.002;2023-05-10T11:50:22;7.70;;;6.22;;
54517;SDS011;40423;53.176;6.002;2023-05-10T11:52:55;7.97;;;5.97;;
54517;SDS011;40423;53.176;6.002;2023-05-10T11:55:21;7.53;;;5.87;;
54517;SDS011;40423;53.176;6.002;2023-05-10T11:57:53;8.63;;;6.07;;
54517;SDS011;40423;53.176;6.002;2023-05-10T12:00:19;8.63;;;6.18;;
54517;SDS011;40423;53.176;6.002;2023-05-10T12:02:46;10.18;;;7.30;;
54517;SDS011;40423;53.176;6.002;2023-05-10T12:05:12;11.98;;;8.18;;
54517;SDS011;40423;53.176;6.002;2023-05-10T12:07:38;8.60;;;7.45;;
54517;SDS011;40423;53.176;6.002;2023-05-10T12:10:13;10.55;;;7.75;;
54517;SDS011;40423;53.176;6.002;2023-05-10T12:12:45;8.82;;;7.07;;
54517;SDS011;40423;53.176;6.002;2023-05-10T12:17:46;8.57;;;6.82;;
54517;SDS011;40423;53.176;6.002;2023-05-10T12:20:22;10.02;;;7.85;;
54517;SDS011;40423;53.176;6.002;2023-05-10T12:22:50;10.00;;;7.28;;
54517;SDS011;40423;53.176;6.002;2023-05-10T12:25:17;8.45;;;6.93;;
54517;SDS011;40423;53.176;6.002;2023-05-10T12:27:48;7.35;;;6.15;;
54517;SDS011;40423;53.176;6.002;2023-05-10T12:30:23;8.55;;;6.43;;
54517;SDS011;40423;53.176;6.002;2023-05-10T12:32:50;8.32;;;6.75;;
54517;SDS011;40423;53.176;6.002;2023-05-10T12:35:16;8.65;;;7.38;;
54517;SDS011;40423;53.176;6.002;2023-05-10T12:37:47;7.93;;;6.43;;
54517;SDS011;40423;53.176;6.002;2023-05-10T12:40:13;7.38;;;6.28;;
54517;SDS011;40423;53.176;6.002;2023-05-10T12:42:39;13.63;;;7.22;;
54517;SDS011;40423;53.176;6.002;2023-05-10T12:45:05;11.15;;;7.45;;
54517;SDS011;40423;53.176;6.002;2023-05-10T12:47:32;9.25;;;7.85;;
54517;SDS011;40423;53.176;6.002;2023-05-10T12:49:58;10.85;;;7.43;;
54517;SDS011;40423;53.176;6.002;2023-05-10T12:52:25;10.13;;;7.55;;
54517;SDS011;40423;53.176;6.002;2023-05-10T12:54:51;9.90;;;7.75;;
54517;SDS011;40423;53.176;6.002;2023-05-10T12:57:18;9.40;;;6.18;;
54517;SDS011;40423;53.176;6.002;2023-05-10T12:59:45;9.55;;;6.72;;
54517;SDS011;40423;53.176;6.002;2023-05-10T13:02:10;10.38;;;7.03;;
54517;SDS011;40423;53.176;6.002;2023-05-10T13:04:36;9.55;;;7.30;;
54517;SDS011;40423;53.176;6.002;2023-05-10T13:07:05;9.15;;;7.20;;
54517;SDS011;40423;53.176;6.002;2023-05-10T13:09:31;13.75;;;8.70;;
54517;SDS011;40423;53.176;6.002;2023-05-10T13:11:57;13.85;;;9.00;;
54517;SDS011;40423;53.176;6.002;2023-05-10T13:14:24;12.15;;;8.13;;
54517;SDS011;40423;53.176;6.002;2023-05-10T13:16:50;11.27;;;7.30;;
54517;SDS011;40423;53.176;6.002;2023-05-10T13:19:16;10.00;;;7.43;;
54517;SDS011;40423;53.176;6.002;2023-05-10T13:21:42;9.32;;;6.85;;
54517;SDS011;40423;53.176;6.002;2023-05-10T13:24:11;11.70;;;6.40;;
54517;SDS011;40423;53.176;6.002;2023-05-10T13:26:40;8.75;;;6.70;;
54517;SDS011;40423;53.176;6.002;2023-05-10T13:29:06;10.27;;;7.28;;
54517;SDS011;40423;53.176;6.002;2023-05-10T13:31:32;9.32;;;6.60;;
54517;SDS011;40423;53.176;6.002;2023-05-10T13:33:58;9.85;;;5.90;;
54517;SDS011;40423;53.176;6.002;2023-05-10T13:36:24;12.73;;;6.40;;
54517;SDS011;40423;53.176;6.002;2023-05-10T13:38:50;8.52;;;5.80;;
54517;SDS011;40423;53.176;6.002;2023-05-10T13:41:15;7.93;;;5.03;;
54517;SDS011;40423;53.176;6.002;2023-05-10T13:43:41;8.85;;;6.03;;
54517;SDS011;40423;53.176;6.002;2023-05-10T13:46:07;7.43;;;5.82;;
54517;SDS011;40423;53.176;6.002;2023-05-10T13:48:33;9.43;;;7.25;;
54517;SDS011;40423;53.176;6.002;2023-05-10T13:50:58;9.13;;;7.15;;
54517;SDS011;40423;53.176;6.002;2023-05-10T13:53:24;11.68;;;7.53;;
54517;SDS011;40423;53.176;6.002;2023-05-10T13:55:50;8.50;;;6.00;;
54517;SDS011;40423;53.176;6.002;2023-05-10T13:58:16;6.82;;;5.20;;
54517;SDS011;40423;53.176;6.002;2023-05-10T14:00:41;6.18;;;3.75;;
54517;SDS011;40423;53.176;6.002;2023-05-10T14:03:07;6.95;;;5.10;;
54517;SDS011;40423;53.176;6.002;2023-05-10T14:05:35;7.32;;;5.22;;
54517;SDS011;40423;53.176;6.002;2023-05-10T14:08:01;8.73;;;6.03;;
54517;SDS011;40423;53.176;6.002;2023-05-10T14:10:27;9.70;;;6.82;;
54517;SDS011;40423;53.176;6.002;2023-05-10T14:12:53;10.50;;;6.13;;
54517;SDS011;40423;53.176;6.002;2023-05-10T14:15:19;6.63;;;5.07;;
54517;SDS011;40423;53.176;6.002;2023-05-10T14:17:45;5.55;;;4.03;;
54517;SDS011;40423;53.176;6.002;2023-05-10T14:20:10;5.18;;;4.25;;
54517;SDS011;40423;53.176;6.002;2023-05-10T14:22:36;6.22;;;5.07;;
54517;SDS011;40423;53.176;6.002;2023-05-10T14:25:02;8.50;;;5.45;;
54517;SDS011;40423;53.176;6.002;2023-05-10T14:27:28;6.10;;;5.15;;
54517;SDS011;40423;53.176;6.002;2023-05-10T14:29:55;6.03;;;5.40;;
54517;SDS011;40423;53.176;6.002;2023-05-10T14:32:21;6.57;;;5.43;;
54517;SDS011;40423;53.176;6.002;2023-05-10T14:34:46;8.18;;;6.53;;
54517;SDS011;40423;53.176;6.002;2023-05-10T14:37:13;7.75;;;5.97;;
54517;SDS011;40423;53.176;6.002;2023-05-10T14:39:40;6.13;;;5.18;;
54517;SDS011;40423;53.176;6.002;2023-05-10T14:42:07;5.18;;;4.53;;
54517;SDS011;40423;53.176;6.002;2023-05-10T14:44:33;6.57;;;4.60;;
54517;SDS011;40423;53.176;6.002;2023-05-10T14:46:59;4.50;;;3.92;;
54517;SDS011;40423;53.176;6.002;2023-05-10T14:49:25;4.57;;;3.90;;
54517;SDS011;40423;53.176;6.002;2023-05-10T14:51:51;4.97;;;3.90;;
54517;SDS011;40423;53.176;6.002;2023-05-10T14:54:17;4.75;;;4.22;;
54517;SDS011;40423;53.176;6.002;2023-05-10T14:56:42;4.93;;;4.35;;
54517;SDS011;40423;53.176;6.002;2023-05-10T14:59:08;6.38;;;4.93;;
54517;SDS011;40423;53.176;6.002;2023-05-10T15:01:34;6.18;;;4.97;;
54517;SDS011;40423;53.176;6.002;2023-05-10T15:04:02;5.93;;;5.10;;
54517;SDS011;40423;53.176;6.002;2023-05-10T15:06:33;6.43;;;4.72;;
54517;SDS011;40423;53.176;6.002;2023-05-10T15:09:02;4.70;;;4.03;;
54517;SDS011;40423;53.176;6.002;2023-05-10T15:11:28;6.30;;;3.92;;
54517;SDS011;40423;53.176;6.002;2023-05-10T15:13:54;5.38;;;4.55;;
54517;SDS011;40423;53.176;6.002;2023-05-10T15:16:20;5.85;;;4.25;;
54517;SDS011;40423;53.176;6.002;2023-05-10T15:18:46;5.72;;;4.65;;
54517;SDS011;40423;53.176;6.002;2023-05-10T15:21:12;9.10;;;6.25;;
54517;SDS011;40423;53.176;6.002;2023-05-10T15:23:40;6.32;;;5.60;;
54517;SDS011;40423;53.176;6.002;2023-05-10T15:26:06;6.40;;;5.75;;